In Rescue
 
Open Full Screen Window  High Contrast Mode
Wind Gusting 00 knots
07
January 17, 2021 1:54 PM EST
Present Weather: Light Snow
Weather Information
Wind Direction
  210 °
Wind Speed
  07 kt (8 mph)
Wind Gust
  00 kt (0 mph)
Altimeter
29.70 in
Visibility
1 1/2 SM
Temperature
01° C
34° F
Dewpoint
-00° C
32° F
Humidity
93%
1hr Rain Fall
00.00 in.
24hr Rain Fall
00.00 in.
Sky Condition
Overcast @ 900 ft
IFR

METAR K4I3 171854Z AUTO 21007KT 1 1/2SM -SN OVC009 01/M00 A2970 RMK AO2

FAA Disclaimer: The data displayed is for advisory purposes only and is not to be used for flight planning or operations.